sensor_id;sensor_type;location;lat;lon;timestamp;pressure;altitude;pressure_sealevel;temperature;humidity
9695;BME280;4690;52.422;13.486;2023-02-24T00:04:41;100705.97;;;8.30;95.56
9695;BME280;4690;52.422;13.486;2023-02-24T00:07:10;100704.31;;;8.43;95.17
9695;BME280;4690;52.422;13.486;2023-02-24T00:09:38;100705.53;;;8.47;95.02
9695;BME280;4690;52.422;13.486;2023-02-24T00:12:08;100697.34;;;8.53;94.86
9695;BME280;4690;52.422;13.486;2023-02-24T00:14:37;100698.81;;;8.56;94.92
9695;BME280;4690;52.422;13.486;2023-02-24T00:17:05;100696.28;;;8.55;94.59
9695;BME280;4690;52.422;13.486;2023-02-24T00:19:35;100694.19;;;8.57;94.59
9695;BME280;4690;52.422;13.486;2023-02-24T00:22:03;100697.72;;;8.64;94.53
9695;BME280;4690;52.422;13.486;2023-02-24T00:24:30;100692.94;;;8.59;94.48
9695;BME280;4690;52.422;13.486;2023-02-24T00:26:59;100685.41;;;8.41;94.55
9695;BME280;4690;52.422;13.486;2023-02-24T00:29:28;100688.75;;;8.30;94.59
9695;BME280;4690;52.422;13.486;2023-02-24T00:31:58;100684.56;;;8.41;94.80
9695;BME280;4690;52.422;13.486;2023-02-24T00:34:30;100686.03;;;8.43;94.07
9695;BME280;4690;52.422;13.486;2023-02-24T00:36:58;100685.63;;;8.40;94.65
9695;BME280;4690;52.422;13.486;2023-02-24T00:39:25;100685.81;;;8.31;94.46
9695;BME280;4690;52.422;13.486;2023-02-24T00:41:55;100679.09;;;8.34;94.42
9695;BME280;4690;52.422;13.486;2023-02-24T00:44:34;100667.94;;;8.36;94.23
9695;BME280;4690;52.422;13.486;2023-02-24T00:47:02;100669.88;;;8.28;94.46
9695;BME280;4690;52.422;13.486;2023-02-24T00:49:30;100675.94;;;8.30;94.20
9695;BME280;4690;52.422;13.486;2023-02-24T00:51:57;100675.13;;;8.23;94.68
9695;BME280;4690;52.422;13.486;2023-02-24T00:54:23;100660.00;;;8.34;94.77
9695;BME280;4690;52.422;13.486;2023-02-24T00:56:54;100657.09;;;8.22;94.60
9695;BME280;4690;52.422;13.486;2023-02-24T00:59:20;100652.66;;;8.21;94.00
9695;BME280;4690;52.422;13.486;2023-02-24T01:01:49;100656.88;;;8.11;94.24
9695;BME280;4690;52.422;13.486;2023-02-24T01:04:17;100653.50;;;8.15;94.21
9695;BME280;4690;52.422;13.486;2023-02-24T01:06:51;100650.59;;;8.10;93.98
9695;BME280;4690;52.422;13.486;2023-02-24T01:09:26;100662.78;;;8.01;94.12
9695;BME280;4690;52.422;13.486;2023-02-24T01:11:53;100657.75;;;7.98;94.51
9695;BME280;4690;52.422;13.486;2023-02-24T01:14:38;100657.75;;;7.84;93.95
9695;BME280;4690;52.422;13.486;2023-02-24T01:17:08;100667.84;;;7.84;92.51
9695;BME280;4690;52.422;13.486;2023-02-24T01:19:35;100660.72;;;7.63;92.65
9695;BME280;4690;52.422;13.486;2023-02-24T01:22:05;100667.41;;;7.40;92.28
9695;BME280;4690;52.422;13.486;2023-02-24T01:24:35;100664.88;;;7.32;92.78
9695;BME280;4690;52.422;13.486;2023-02-24T01:27:04;100665.72;;;7.33;92.52
9695;BME280;4690;52.422;13.486;2023-02-24T01:29:30;100669.25;;;7.07;91.86
9695;BME280;4690;52.422;13.486;2023-02-24T01:31:56;100658.53;;;7.05;91.65
9695;BME280;4690;52.422;13.486;2023-02-24T01:34:25;100657.44;;;6.86;91.78
9695;BME280;4690;52.422;13.486;2023-02-24T01:36:53;100651.78;;;6.88;92.63
9695;BME280;4690;52.422;13.486;2023-02-24T01:39:19;100651.38;;;6.91;91.96
9695;BME280;4690;52.422;13.486;2023-02-24T01:41:48;100656.00;;;6.90;92.26
9695;BME280;4690;52.422;13.486;2023-02-24T01:46:48;100651.75;;;6.81;91.80
9695;BME280;4690;52.422;13.486;2023-02-24T01:49:28;100646.44;;;6.60;91.39
9695;BME280;4690;52.422;13.486;2023-02-24T01:52:12;100638.03;;;6.48;90.98
9695;BME280;4690;52.422;13.486;2023-02-24T01:55:21;100639.94;;;6.54;91.69
9695;BME280;4690;52.422;13.486;2023-02-24T01:57:52;100633.06;;;6.65;91.48
9695;BME280;4690;52.422;13.486;2023-02-24T02:00:18;100635.81;;;6.71;90.62
9695;BME280;4690;52.422;13.486;2023-02-24T02:03:10;100631.59;;;6.62;91.26
9695;BME280;4690;52.422;13.486;2023-02-24T02:05:40;100628.81;;;6.49;90.39
9695;BME280;4690;52.422;13.486;2023-02-24T02:08:07;100628.41;;;6.59;90.61
9695;BME280;4690;52.422;13.486;2023-02-24T02:10:35;100636.16;;;6.55;90.77
9695;BME280;4690;52.422;13.486;2023-02-24T02:13:03;100626.47;;;6.39;90.36
9695;BME280;4690;52.422;13.486;2023-02-24T02:15:36;100633.34;;;6.35;90.11
9695;BME280;4690;52.422;13.486;2023-02-24T02:28:01;100628.38;;;6.04;90.94
9695;BME280;4690;52.422;13.486;2023-02-24T02:39:15;100622.44;;;5.94;89.28
9695;BME280;4690;52.422;13.486;2023-02-24T02:42:07;100616.66;;;6.03;89.53
9695;BME280;4690;52.422;13.486;2023-02-24T02:45:05;100618.50;;;5.96;88.68
9695;BME280;4690;52.422;13.486;2023-02-24T02:53:29;100623.47;;;5.65;87.39
9695;BME280;4690;52.422;13.486;2023-02-24T02:56:18;100628.50;;;5.68;88.63
9695;BME280;4690;52.422;13.486;2023-02-24T02:58:51;100613.66;;;5.64;88.27
9695;BME280;4690;52.422;13.486;2023-02-24T03:01:22;100624.19;;;5.52;88.14
9695;BME280;4690;52.422;13.486;2023-02-24T03:03:56;100622.28;;;5.46;86.84
9695;BME280;4690;52.422;13.486;2023-02-24T03:06:33;100630.63;;;5.44;86.85
9695;BME280;4690;52.422;13.486;2023-02-24T03:09:12;100633.75;;;5.41;86.50
9695;BME280;4690;52.422;13.486;2023-02-24T03:11:58;100622.75;;;5.28;84.95
9695;BME280;4690;52.422;13.486;2023-02-24T03:14:31;100620.59;;;5.23;85.71
9695;BME280;4690;52.422;13.486;2023-02-24T03:17:08;100622.75;;;5.28;86.34
9695;BME280;4690;52.422;13.486;2023-02-24T03:19:39;100628.50;;;4.97;85.35
9695;BME280;4690;52.422;13.486;2023-02-24T03:22:52;100617.53;;;5.05;86.12
9695;BME280;4690;52.422;13.486;2023-02-24T03:25:10;100622.63;;;4.93;85.22
9695;BME280;4690;52.422;13.486;2023-02-24T03:27:56;100611.38;;;4.96;86.84
9695;BME280;4690;52.422;13.486;2023-02-24T03:30:36;100612.22;;;5.18;86.39
9695;BME280;4690;52.422;13.486;2023-02-24T03:33:24;100612.53;;;5.08;86.64
9695;BME280;4690;52.422;13.486;2023-02-24T03:35:54;100607.81;;;5.17;85.68
9695;BME280;4690;52.422;13.486;2023-02-24T03:38:28;100595.19;;;5.09;86.39
9695;BME280;4690;52.422;13.486;2023-02-24T03:40:55;100596.69;;;5.12;85.19
9695;BME280;4690;52.422;13.486;2023-02-24T03:43:31;100596.28;;;5.15;85.62
9695;BME280;4690;52.422;13.486;2023-02-24T03:45:59;100587.41;;;5.00;84.75
9695;BME280;4690;52.422;13.486;2023-02-24T03:48:28;100594.19;;;5.10;85.96
9695;BME280;4690;52.422;13.486;2023-02-24T03:50:55;100591.59;;;5.02;83.18
9695;BME280;4690;52.422;13.486;2023-02-24T03:53:30;100587.97;;;4.95;85.39
9695;BME280;4690;52.422;13.486;2023-02-24T03:59:06;100581.69;;;5.16;84.46
9695;BME280;4690;52.422;13.486;2023-02-24T04:01:49;100583.63;;;5.22;83.41
9695;BME280;4690;52.422;13.486;2023-02-24T04:04:52;100575.28;;;5.24;83.35
9695;BME280;4690;52.422;13.486;2023-02-24T04:07:39;100567.28;;;5.15;82.87
9695;BME280;4690;52.422;13.486;2023-02-24T04:10:22;100572.09;;;5.20;82.77
9695;BME280;4690;52.422;13.486;2023-02-24T04:13:07;100572.94;;;5.21;82.83
9695;BME280;4690;52.422;13.486;2023-02-24T04:15:42;100569.63;;;4.97;81.17
9695;BME280;4690;52.422;13.486;2023-02-24T04:18:23;100558.97;;;4.96;81.60
9695;BME280;4690;52.422;13.486;2023-02-24T04:20:54;100559.88;;;5.09;79.84
9695;BME280;4690;52.422;13.486;2023-02-24T04:23:41;100556.66;;;5.21;80.22
9695;BME280;4690;52.422;13.486;2023-02-24T04:26:10;100559.75;;;5.17;77.23
9695;BME280;4690;52.422;13.486;2023-02-24T04:28:38;100551.16;;;5.14;76.65
9695;BME280;4690;52.422;13.486;2023-02-24T04:31:10;100549.09;;;5.16;76.21
9695;BME280;4690;52.422;13.486;2023-02-24T04:33:42;100556.06;;;5.25;77.01
9695;BME280;4690;52.422;13.486;2023-02-24T04:36:08;100538.69;;;5.20;77.42
9695;BME280;4690;52.422;13.486;2023-02-24T04:38:37;100544.16;;;5.26;76.33
9695;BME280;4690;52.422;13.486;2023-02-24T04:41:04;100535.78;;;5.21;76.31
9695;BME280;4690;52.422;13.486;2023-02-24T04:43:30;100533.34;;;5.05;76.02
9695;BME280;4690;52.422;13.486;2023-02-24T04:45:56;100542.72;;;5.02;75.96
9695;BME280;4690;52.422;13.486;2023-02-24T04:48:21;100527.59;;;4.93;75.22
9695;BME280;4690;52.422;13.486;2023-02-24T04:50:47;100527.06;;;5.04;75.74
9695;BME280;4690;52.422;13.486;2023-02-24T04:53:20;100519.31;;;5.01;74.53
9695;BME280;4690;52.422;13.486;2023-02-24T04:55:51;100516.25;;;5.11;75.12
9695;BME280;4690;52.422;13.486;2023-02-24T04:58:24;100516.28;;;5.17;75.67
9695;BME280;4690;52.422;13.486;2023-02-24T05:00:54;100514.88;;;5.22;74.16
9695;BME280;4690;52.422;13.486;2023-02-24T05:03:22;100514.63;;;5.16;74.57
9695;BME280;4690;52.422;13.486;2023-02-24T05:05:56;100523.56;;;5.10;73.50
9695;BME280;4690;52.422;13.486;2023-02-24T05:08:26;100506.72;;;4.93;73.27
9695;BME280;4690;52.422;13.486;2023-02-24T05:10:53;100512.06;;;5.08;74.05
9695;BME280;4690;52.422;13.486;2023-02-24T05:13:27;100510.03;;;5.17;73.86
9695;BME280;4690;52.422;13.486;2023-02-24T05:15:59;100499.41;;;5.22;74.63
9695;BME280;4690;52.422;13.486;2023-02-24T05:18:28;100495.88;;;5.22;74.23
9695;BME280;4690;52.422;13.486;2023-02-24T05:21:06;100497.91;;;5.13;72.78
9695;BME280;4690;52.422;13.486;2023-02-24T05:23:53;100498.34;;;5.16;73.46
9695;BME280;4690;52.422;13.486;2023-02-24T05:26:21;100498.16;;;5.18;72.70
9695;BME280;4690;52.422;13.486;2023-02-24T05:28:53;100498.97;;;5.19;73.42
9695;BME280;4690;52.422;13.486;2023-02-24T05:31:24;100493.16;;;5.22;72.99
9695;BME280;4690;52.422;13.486;2023-02-24T05:34:04;100485.84;;;5.22;73.52
9695;BME280;4690;52.422;13.486;2023-02-24T05:36:37;100485.16;;;5.13;73.27
9695;BME280;4690;52.422;13.486;2023-02-24T05:39:06;100475.69;;;5.09;74.09
9695;BME280;4690;52.422;13.486;2023-02-24T05:41:35;100485.97;;;5.14;73.70
9695;BME280;4690;52.422;13.486;2023-02-24T05:44:07;100481.19;;;4.88;73.91
9695;BME280;4690;52.422;13.486;2023-02-24T05:46:40;100477.81;;;4.86;74.85
9695;BME280;4690;52.422;13.486;2023-02-24T05:49:12;100478.53;;;4.94;74.35
9695;BME280;4690;52.422;13.486;2023-02-24T05:51:39;100471.47;;;5.00;74.52
9695;BME280;4690;52.422;13.486;2023-02-24T05:54:11;100470.63;;;5.00;74.50
9695;BME280;4690;52.422;13.486;2023-02-24T05:56:40;100462.03;;;4.96;73.82
9695;BME280;4690;52.422;13.486;2023-02-24T05:59:11;100462.31;;;4.80;74.55
9695;BME280;4690;52.422;13.486;2023-02-24T06:01:40;100452.16;;;4.88;73.55
9695;BME280;4690;52.422;13.486;2023-02-24T06:04:08;100456.53;;;4.89;74.36
9695;BME280;4690;52.422;13.486;2023-02-24T06:06:40;100455.31;;;4.92;73.81
9695;BME280;4690;52.422;13.486;2023-02-24T06:09:15;100452.56;;;4.85;73.73
9695;BME280;4690;52.422;13.486;2023-02-24T06:11:42;100445.81;;;4.81;73.28
9695;BME280;4690;52.422;13.486;2023-02-24T06:14:11;100441.44;;;4.80;73.43
9695;BME280;4690;52.422;13.486;2023-02-24T06:16:40;100445.69;;;4.89;72.83
9695;BME280;4690;52.422;13.486;2023-02-24T06:19:09;100447.28;;;5.05;73.32
9695;BME280;4690;52.422;13.486;2023-02-24T06:21:38;100446.28;;;5.13;71.73
9695;BME280;4690;52.422;13.486;2023-02-24T06:24:12;100436.53;;;4.90;71.82
9695;BME280;4690;52.422;13.486;2023-02-24T06:26:42;100431.53;;;4.94;72.60
9695;BME280;4690;52.422;13.486;2023-02-24T06:29:16;100427.53;;;4.90;72.03
9695;BME280;4690;52.422;13.486;2023-02-24T06:31:43;100423.47;;;5.07;71.18
9695;BME280;4690;52.422;13.486;2023-02-24T06:34:10;100433.28;;;5.08;70.57
9695;BME280;4690;52.422;13.486;2023-02-24T06:36:37;100424.97;;;4.82;71.59
9695;BME280;4690;52.422;13.486;2023-02-24T06:39:05;100427.63;;;4.75;71.94
9695;BME280;4690;52.422;13.486;2023-02-24T06:41:34;100431.22;;;4.54;72.23
9695;BME280;4690;52.422;13.486;2023-02-24T06:44:00;100422.28;;;4.60;73.68
9695;BME280;4690;52.422;13.486;2023-02-24T06:46:25;100419.38;;;4.62;73.16
9695;BME280;4690;52.422;13.486;2023-02-24T06:48:51;100426.53;;;4.69;72.56
9695;BME280;4690;52.422;13.486;2023-02-24T06:51:17;100415.50;;;4.71;72.64
9695;BME280;4690;52.422;13.486;2023-02-24T06:53:43;100421.47;;;4.88;72.65
9695;BME280;4690;52.422;13.486;2023-02-24T06:56:14;100406.69;;;4.97;72.72
9695;BME280;4690;52.422;13.486;2023-02-24T06:58:47;100408.06;;;5.14;71.86
9695;BME280;4690;52.422;13.486;2023-02-24T07:01:19;100409.13;;;5.20;70.38
9695;BME280;4690;52.422;13.486;2023-02-24T07:03:46;100400.16;;;5.20;69.38
9695;BME280;4690;52.422;13.486;2023-02-24T07:06:36;100399.31;;;4.84;70.66
9695;BME280;4690;52.422;13.486;2023-02-24T07:09:09;100404.41;;;4.72;71.17
9695;BME280;4690;52.422;13.486;2023-02-24T07:11:37;100401.81;;;4.86;70.84
9695;BME280;4690;52.422;13.486;2023-02-24T07:14:07;100400.47;;;5.03;70.87
9695;BME280;4690;52.422;13.486;2023-02-24T07:16:35;100394.75;;;4.91;69.63
9695;BME280;4690;52.422;13.486;2023-02-24T07:19:05;100396.22;;;4.94;68.78
9695;BME280;4690;52.422;13.486;2023-02-24T07:21:37;100388.22;;;5.14;67.41
9695;BME280;4690;52.422;13.486;2023-02-24T07:24:09;100379.81;;;5.09;67.30
9695;BME280;4690;52.422;13.486;2023-02-24T07:26:40;100380.97;;;5.28;67.68
9695;BME280;4690;52.422;13.486;2023-02-24T07:29:12;100378.44;;;5.26;67.13
9695;BME280;4690;52.422;13.486;2023-02-24T07:31:38;100379.59;;;5.45;67.46
9695;BME280;4690;52.422;13.486;2023-02-24T07:34:04;100373.16;;;5.59;67.06
9695;BME280;4690;52.422;13.486;2023-02-24T07:36:31;100377.34;;;5.69;66.48
9695;BME280;4690;52.422;13.486;2023-02-24T07:39:04;100365.66;;;5.20;64.23
9695;BME280;4690;52.422;13.486;2023-02-24T07:41:33;100362.19;;;5.33;64.83
9695;BME280;4690;52.422;13.486;2023-02-24T07:43:59;100361.13;;;5.27;62.86
9695;BME280;4690;52.422;13.486;2023-02-24T07:46:29;100361.28;;;5.19;63.98
9695;BME280;4690;52.422;13.486;2023-02-24T07:48:56;100350.41;;;5.12;64.83
9695;BME280;4690;52.422;13.486;2023-02-24T07:51:26;100346.97;;;4.97;64.72
9695;BME280;4690;52.422;13.486;2023-02-24T07:53:58;100343.50;;;5.16;64.36
9695;BME280;4690;52.422;13.486;2023-02-24T07:56:27;100351.16;;;5.41;63.52
9695;BME280;4690;52.422;13.486;2023-02-24T07:58:58;100332.25;;;5.26;64.14
9695;BME280;4690;52.422;13.486;2023-02-24T08:01:30;100327.03;;;5.25;64.71
9695;BME280;4690;52.422;13.486;2023-02-24T08:04:06;100330.84;;;5.30;63.94
9695;BME280;4690;52.422;13.486;2023-02-24T08:06:40;100327.69;;;5.27;63.51
9695;BME280;4690;52.422;13.486;2023-02-24T08:09:18;100313.63;;;5.16;64.49
9695;BME280;4690;52.422;13.486;2023-02-24T08:12:04;100313.28;;;5.33;65.28
9695;BME280;4690;52.422;13.486;2023-02-24T08:14:30;100302.91;;;5.02;64.30
9695;BME280;4690;52.422;13.486;2023-02-24T08:17:01;100297.56;;;5.22;66.24
9695;BME280;4690;52.422;13.486;2023-02-24T08:19:32;100288.78;;;5.26;65.78
9695;BME280;4690;52.422;13.486;2023-02-24T08:22:07;100291.66;;;5.11;65.18
9695;BME280;4690;52.422;13.486;2023-02-24T08:24:47;100287.28;;;5.10;65.70
9695;BME280;4690;52.422;13.486;2023-02-24T08:27:16;100277.91;;;5.13;66.51
9695;BME280;4690;52.422;13.486;2023-02-24T08:29:56;100272.97;;;5.36;64.87
9695;BME280;4690;52.422;13.486;2023-02-24T08:32:32;100264.09;;;5.08;64.38
9695;BME280;4690;52.422;13.486;2023-02-24T08:35:00;100275.19;;;5.20;65.08
9695;BME280;4690;52.422;13.486;2023-02-24T08:37:32;100265.00;;;5.28;65.75
9695;BME280;4690;52.422;13.486;2023-02-24T08:40:29;100261.06;;;5.51;64.32
9695;BME280;4690;52.422;13.486;2023-02-24T08:43:12;100269.25;;;5.64;64.49
9695;BME280;4690;52.422;13.486;2023-02-24T08:48:41;100253.47;;;5.13;65.54
9695;BME280;4690;52.422;13.486;2023-02-24T08:51:14;100242.00;;;5.37;65.40
9695;BME280;4690;52.422;13.486;2023-02-24T08:53:43;100245.63;;;5.58;64.71
9695;BME280;4690;52.422;13.486;2023-02-24T08:56:13;100234.53;;;5.59;64.46
9695;BME280;4690;52.422;13.486;2023-02-24T08:58:50;100238.09;;;5.53;64.59
9695;BME280;4690;52.422;13.486;2023-02-24T09:01:26;100227.03;;;5.61;63.46
9695;BME280;4690;52.422;13.486;2023-02-24T09:03:58;100217.63;;;5.71;62.70
9695;BME280;4690;52.422;13.486;2023-02-24T09:06:43;100217.19;;;5.54;64.22
9695;BME280;4690;52.422;13.486;2023-02-24T09:09:15;100214.28;;;5.62;65.53
9695;BME280;4690;52.422;13.486;2023-02-24T09:11:58;100215.31;;;5.61;63.38
9695;BME280;4690;52.422;13.486;2023-02-24T09:14:29;100205.72;;;5.78;63.14
9695;BME280;4690;52.422;13.486;2023-02-24T09:17:02;100200.28;;;5.72;63.77
9695;BME280;4690;52.422;13.486;2023-02-24T09:19:45;100192.13;;;5.98;63.52
9695;BME280;4690;52.422;13.486;2023-02-24T09:22:13;100188.72;;;6.43;61.96
9695;BME280;4690;52.422;13.486;2023-02-24T09:24:42;100187.72;;;5.84;61.93
9695;BME280;4690;52.422;13.486;2023-02-24T09:27:10;100188.34;;;5.93;62.47
9695;BME280;4690;52.422;13.486;2023-02-24T09:29:41;100186.28;;;5.95;62.13
9695;BME280;4690;52.422;13.486;2023-02-24T09:32:14;100178.28;;;5.80;62.04
9695;BME280;4690;52.422;13.486;2023-02-24T09:34:42;100182.91;;;5.66;63.20
9695;BME280;4690;52.422;13.486;2023-02-24T09:37:13;100175.19;;;5.70;63.20
9695;BME280;4690;52.422;13.486;2023-02-24T09:39:52;100174.97;;;5.78;63.37
9695;BME280;4690;52.422;13.486;2023-02-24T09:42:31;100160.09;;;5.87;62.95
9695;BME280;4690;52.422;13.486;2023-02-24T09:45:20;100167.41;;;6.26;62.27
9695;BME280;4690;52.422;13.486;2023-02-24T09:48:07;100170.13;;;6.26;60.88
9695;BME280;4690;52.422;13.486;2023-02-24T09:50:38;100161.78;;;5.88;60.85
9695;BME280;4690;52.422;13.486;2023-02-24T09:53:16;100161.38;;;5.84;60.53
9695;BME280;4690;52.422;13.486;2023-02-24T09:56:04;100151.34;;;5.98;61.18
9695;BME280;4690;52.422;13.486;2023-02-24T09:59:13;100144.66;;;5.81;62.14
9695;BME280;4690;52.422;13.486;2023-02-24T10:02:17;100144.44;;;5.69;61.39
9695;BME280;4690;52.422;13.486;2023-02-24T10:05:09;100137.94;;;5.83;61.76
9695;BME280;4690;52.422;13.486;2023-02-24T10:07:42;100130.00;;;6.09;60.67
9695;BME280;4690;52.422;13.486;2023-02-24T10:10:30;100123.50;;;6.10;60.17
9695;BME280;4690;52.422;13.486;2023-02-24T10:13:15;100130.81;;;6.09;60.78
9695;BME280;4690;52.422;13.486;2023-02-24T10:15:57;100113.28;;;5.98;60.06
9695;BME280;4690;52.422;13.486;2023-02-24T10:24:14;100116.91;;;6.44;59.35
9695;BME280;4690;52.422;13.486;2023-02-24T10:26:57;100105.22;;;6.30;58.20
9695;BME280;4690;52.422;13.486;2023-02-24T10:32:19;100091.59;;;6.37;58.83
9695;BME280;4690;52.422;13.486;2023-02-24T10:34:52;100083.88;;;6.72;58.45
9695;BME280;4690;52.422;13.486;2023-02-24T10:37:21;100067.53;;;6.79;57.32
9695;BME280;4690;52.422;13.486;2023-02-24T10:39:49;100075.59;;;6.92;57.07
9695;BME280;4690;52.422;13.486;2023-02-24T10:42:31;100075.13;;;6.63;56.28
9695;BME280;4690;52.422;13.486;2023-02-24T10:45:11;100070.31;;;6.97;56.75
9695;BME280;4690;52.422;13.486;2023-02-24T10:47:39;100063.91;;;6.46;57.14
9695;BME280;4690;52.422;13.486;2023-02-24T10:50:31;100051.47;;;6.64;58.30
9695;BME280;4690;52.422;13.486;2023-02-24T10:53:10;100053.09;;;6.33;57.91
9695;BME280;4690;52.422;13.486;2023-02-24T10:55:51;100044.16;;;6.19;58.37
9695;BME280;4690;52.422;13.486;2023-02-24T10:58:34;100034.34;;;6.57;57.69
9695;BME280;4690;52.422;13.486;2023-02-24T11:01:19;100035.13;;;6.64;56.88
9695;BME280;4690;52.422;13.486;2023-02-24T11:04:17;100023.38;;;6.70;57.10
9695;BME280;4690;52.422;13.486;2023-02-24T11:07:13;100019.84;;;6.31;58.18
9695;BME280;4690;52.422;13.486;2023-02-24T11:12:47;100015.66;;;6.28;60.48
9695;BME280;4690;52.422;13.486;2023-02-24T11:15:45;100032.50;;;6.05;63.90
9695;BME280;4690;52.422;13.486;2023-02-24T11:18:32;100018.03;;;6.05;66.04
9695;BME280;4690;52.422;13.486;2023-02-24T11:21:08;100007.41;;;6.03;67.06
9695;BME280;4690;52.422;13.486;2023-02-24T11:23:54;100007.44;;;5.83;68.39
9695;BME280;4690;52.422;13.486;2023-02-24T11:26:37;100008.06;;;5.79;70.06
9695;BME280;4690;52.422;13.486;2023-02-24T11:40:15;99995.88;;;5.03;78.84
9695;BME280;4690;52.422;13.486;2023-02-24T11:42:54;99991.47;;;4.76;80.38
9695;BME280;4690;52.422;13.486;2023-02-24T11:45:45;99985.41;;;4.60;81.49
9695;BME280;4690;52.422;13.486;2023-02-24T11:48:21;99975.56;;;4.53;83.28
9695;BME280;4690;52.422;13.486;2023-02-24T11:53:33;99972.41;;;4.36;86.42
9695;BME280;4690;52.422;13.486;2023-02-24T11:59:01;99953.84;;;4.33;87.71
9695;BME280;4690;52.422;13.486;2023-02-24T12:01:33;99957.03;;;4.56;88.70
9695;BME280;4690;52.422;13.486;2023-02-24T12:04:19;99952.16;;;4.25;89.23
9695;BME280;4690;52.422;13.486;2023-02-24T12:07:04;99952.97;;;4.12;90.92
9695;BME280;4690;52.422;13.486;2023-02-24T12:09:48;99936.25;;;4.02;91.45
9695;BME280;4690;52.422;13.486;2023-02-24T12:12:21;99935.63;;;4.00;92.06
9695;BME280;4690;52.422;13.486;2023-02-24T12:15:26;99927.31;;;4.15;92.55
9695;BME280;4690;52.422;13.486;2023-02-24T12:20:57;99913.66;;;3.75;92.70
9695;BME280;4690;52.422;13.486;2023-02-24T12:23:34;99912.03;;;3.87;92.61
9695;BME280;4690;52.422;13.486;2023-02-24T12:32:39;99899.06;;;3.76;93.48
9695;BME280;4690;52.422;13.486;2023-02-24T12:35:32;99889.00;;;3.56;94.76
9695;BME280;4690;52.422;13.486;2023-02-24T12:41:27;99873.84;;;3.75;95.33
9695;BME280;4690;52.422;13.486;2023-02-24T12:44:14;99884.28;;;3.78;95.09
9695;BME280;4690;52.422;13.486;2023-02-24T12:46:51;99881.94;;;3.69;94.75
9695;BME280;4690;52.422;13.486;2023-02-24T12:55:34;99861.75;;;3.17;97.13
9695;BME280;4690;52.422;13.486;2023-02-24T12:58:24;99852.00;;;3.29;96.90
9695;BME280;4690;52.422;13.486;2023-02-24T13:12:42;99820.97;;;3.31;97.06
9695;BME280;4690;52.422;13.486;2023-02-24T13:15:26;99812.44;;;3.28;98.24
9695;BME280;4690;52.422;13.486;2023-02-24T13:17:53;99808.31;;;3.39;97.51
9695;BME280;4690;52.422;13.486;2023-02-24T13:20:33;99797.44;;;3.32;97.13
9695;BME280;4690;52.422;13.486;2023-02-24T13:23:03;99799.91;;;3.20;97.72
9695;BME280;4690;52.422;13.486;2023-02-24T13:25:35;99794.13;;;3.43;97.99
9695;BME280;4690;52.422;13.486;2023-02-24T13:28:05;99786.59;;;3.25;97.26
9695;BME280;4690;52.422;13.486;2023-02-24T13:31:08;99790.84;;;3.48;97.08
9695;BME280;4690;52.422;13.486;2023-02-24T13:33:39;99777.06;;;3.36;96.65
9695;BME280;4690;52.422;13.486;2023-02-24T13:36:18;99779.41;;;3.52;97.00
9695;BME280;4690;52.422;13.486;2023-02-24T13:39:04;99770.41;;;3.39;97.27
9695;BME280;4690;52.422;13.486;2023-02-24T13:44:26;99761.50;;;3.65;97.72
9695;BME280;4690;52.422;13.486;2023-02-24T13:47:39;99756.28;;;3.70;96.89
9695;BME280;4690;52.422;13.486;2023-02-24T13:50:21;99755.81;;;3.46;97.52
9695;BME280;4690;52.422;13.486;2023-02-24T13:53:09;99744.16;;;3.32;98.05
9695;BME280;4690;52.422;13.486;2023-02-24T13:58:36;99742.63;;;3.23;98.61
9695;BME280;4690;52.422;13.486;2023-02-24T14:01:12;99733.31;;;3.32;98.10
9695;BME280;4690;52.422;13.486;2023-02-24T14:06:28;99747.66;;;3.26;99.03
9695;BME280;4690;52.422;13.486;2023-02-24T14:09:01;99733.13;;;3.47;98.68
9695;BME280;4690;52.422;13.486;2023-02-24T14:11:35;99724.78;;;3.42;98.19
9695;BME280;4690;52.422;13.486;2023-02-24T14:14:03;99720.41;;;3.48;98.23
9695;BME280;4690;52.422;13.486;2023-02-24T14:16:34;99719.16;;;3.57;98.54
9695;BME280;4690;52.422;13.486;2023-02-24T14:19:11;99710.38;;;3.28;99.25
9695;BME280;4690;52.422;13.486;2023-02-24T14:21:54;99711.00;;;3.30;98.63
9695;BME280;4690;52.422;13.486;2023-02-24T14:24:22;99711.00;;;3.30;99.24
9695;BME280;4690;52.422;13.486;2023-02-24T14:26:56;99713.34;;;3.53;98.06
9695;BME280;4690;52.422;13.486;2023-02-24T14:29:27;99696.03;;;3.48;98.33
9695;BME280;4690;52.422;13.486;2023-02-24T14:31:56;99699.59;;;3.42;98.26
9695;BME280;4690;52.422;13.486;2023-02-24T14:34:27;99703.09;;;3.29;98.53
9695;BME280;4690;52.422;13.486;2023-02-24T14:36:57;99694.13;;;3.22;99.55
9695;BME280;4690;52.422;13.486;2023-02-24T14:39:30;99688.06;;;3.13;99.68
9695;BME280;4690;52.422;13.486;2023-02-24T14:42:12;99677.88;;;3.28;99.90
9695;BME280;4690;52.422;13.486;2023-02-24T14:44:52;99683.94;;;3.30;98.87
9695;BME280;4690;52.422;13.486;2023-02-24T14:47:22;99676.44;;;3.26;98.93
9695;BME280;4690;52.422;13.486;2023-02-24T14:50:03;99675.16;;;3.15;99.85
9695;BME280;4690;52.422;13.486;2023-02-24T14:55:47;99669.78;;;3.22;100.00
9695;BME280;4690;52.422;13.486;2023-02-24T14:58:29;99668.53;;;3.24;99.64
9695;BME280;4690;52.422;13.486;2023-02-24T15:06:06;99647.06;;;3.23;99.48
9695;BME280;4690;52.422;13.486;2023-02-24T15:08:49;99648.53;;;3.19;99.96
9695;BME280;4690;52.422;13.486;2023-02-24T15:11:21;99646.44;;;3.14;100.00
9695;BME280;4690;52.422;13.486;2023-02-24T15:13:55;99639.34;;;3.20;99.81
9695;BME280;4690;52.422;13.486;2023-02-24T15:16:36;99635.59;;;3.21;100.00
9695;BME280;4690;52.422;13.486;2023-02-24T15:19:03;99626.22;;;3.23;99.38
9695;BME280;4690;52.422;13.486;2023-02-24T15:21:32;99629.78;;;3.30;99.56
9695;BME280;4690;52.422;13.486;2023-02-24T15:24:40;99622.09;;;3.27;98.93
9695;BME280;4690;52.422;13.486;2023-02-24T15:27:27;99621.22;;;3.20;99.16
9695;BME280;4690;52.422;13.486;2023-02-24T15:30:20;99611.88;;;3.16;99.12
9695;BME280;4690;52.422;13.486;2023-02-24T15:35:32;99601.25;;;3.21;99.10
9695;BME280;4690;52.422;13.486;2023-02-24T15:37:59;99591.69;;;3.39;98.92
9695;BME280;4690;52.422;13.486;2023-02-24T15:40:27;99582.72;;;3.25;98.25
9695;BME280;4690;52.422;13.486;2023-02-24T15:42:56;99583.56;;;3.25;98.79
9695;BME280;4690;52.422;13.486;2023-02-24T15:47:57;99580.22;;;3.17;99.45
9695;BME280;4690;52.422;13.486;2023-02-24T15:50:24;99568.34;;;3.18;99.75